TimePDT,TemperatureF,Dew PointF,Humidity,Sea Level PressureIn,VisibilityMPH,Wind Direction,Wind SpeedMPH,Gust SpeedMPH,PrecipitationIn,Events,Conditions,WindDirDegrees,DateUTC
12:58 AM,47.7,46.9,97,30.08,10.0,South,5.8,-,N/A,,Overcast,190,2013-06-21 07:58:00
1:00 AM,48.2,46.4,93,30.05,10.0,South,6.9,-,N/A,,Overcast,190,2013-06-21 08:00:00
1:18 AM,48.2,46.4,93,30.05,10.0,South,6.9,-,N/A,,Overcast,180,2013-06-21 08:18:00
1:29 AM,48.2,46.4,93,30.04,10.0,South,5.8,-,N/A,,Overcast,170,2013-06-21 08:29:00
1:51 AM,48.2,46.4,93,30.05,10.0,South,6.9,-,N/A,,Overcast,180,2013-06-21 08:51:00
1:55 AM,48.2,46.4,93,30.05,10.0,South,8.1,-,N/A,,Light Drizzle,190,2013-06-21 08:55:00
1:58 AM,47.5,46.8,97,30.08,9.0,South,6.9,-,0.00,,Light Drizzle,180,2013-06-21 08:58:00
1:59 AM,48.2,46.4,93,30.05,9.0,South,5.8,-,N/A,,Light Drizzle,180,2013-06-21 08:59:00
2:00 AM,48.2,46.4,93,30.05,8.0,South,5.8,-,N/A,,Light Drizzle,180,2013-06-21 09:00:00
2:09 AM,48.2,46.4,93,30.05,5.0,South,5.8,-,N/A,Rain,Light Rain,180,2013-06-21 09:09:00
2:12 AM,48.2,46.4,93,30.05,7.0,South,5.8,-,N/A,Rain,Light Rain,180,2013-06-21 09:12:00
2:15 AM,48.2,46.4,93,30.05,10.0,South,5.8,-,N/A,Rain,Light Rain,180,2013-06-21 09:15:00
2:24 AM,48.2,46.4,93,30.05,10.0,South,5.8,-,N/A,Rain,Light Rain,180,2013-06-21 09:24:00
2:26 AM,48.2,46.4,93,30.05,10.0,South,4.6,-,N/A,Rain,Light Rain,170,2013-06-21 09:26:00
2:30 AM,48.2,46.4,93,30.05,9.0,South,6.9,-,N/A,Rain,Light Rain,170,2013-06-21 09:30:00
2:31 AM,48.2,46.4,93,30.05,8.0,South,6.9,-,N/A,Rain,Light Rain,170,2013-06-21 09:31:00
2:35 AM,46.4,46.4,100,30.05,7.0,South,5.8,-,N/A,Rain,Light Rain,170,2013-06-21 09:35:00
2:36 AM,46.4,46.4,100,30.05,7.0,South,5.8,-,N/A,Rain,Light Rain,170,2013-06-21 09:36:00
2:45 AM,46.4,46.4,100,30.05,10.0,South,5.8,-,N/A,Rain,Light Rain,180,2013-06-21 09:45:00
2:53 AM,46.4,46.4,100,30.05,10.0,South,4.6,-,N/A,,Overcast,180,2013-06-21 09:53:00
2:58 AM,47.1,46.9,99,30.08,10.0,South,5.8,-,0.02,,Overcast,190,2013-06-21 09:58:00
3:04 AM,46.4,46.4,100,30.05,10.0,South,3.5,-,N/A,Rain,Light Rain,190,2013-06-21 10:04:00
3:06 AM,48.2,46.4,93,30.05,9.0,South,5.8,-,N/A,Rain,Light Rain,190,2013-06-21 10:06:00
3:11 AM,46.4,46.4,100,30.05,10.0,South,5.8,-,N/A,Rain,Light Rain,190,2013-06-21 10:11:00
3:16 AM,46.4,46.4,100,30.05,9.0,South,4.6,-,N/A,Rain,Light Rain,180,2013-06-21 10:16:00
3:22 AM,46.4,46.4,100,30.05,8.0,SSW,6.9,-,N/A,Rain,Light Rain,200,2013-06-21 10:22:00
3:27 AM,46.4,46.4,100,30.05,7.0,SSW,5.8,-,N/A,,Overcast,200,2013-06-21 10:27:00
3:34 AM,46.4,46.4,100,30.05,9.0,SSW,5.8,-,N/A,,Light Drizzle,200,2013-06-21 10:34:00
3:35 AM,46.4,46.4,100,30.05,9.0,SSW,4.6,-,N/A,,Light Drizzle,200,2013-06-21 10:35:00
3:36 AM,46.4,46.4,100,30.05,9.0,SSW,4.6,-,N/A,,Light Drizzle,200,2013-06-21 10:36:00
3:43 AM,46.4,46.4,100,30.05,10.0,SSW,5.8,-,N/A,Rain,Light Rain,200,2013-06-21 10:43:00
3:54 AM,46.4,46.4,100,30.05,9.0,SSW,2.3,-,N/A,,Light Drizzle,200,2013-06-21 10:54:00
3:56 AM,46.4,46.4,100,30.05,7.0,SSW,2.3,-,N/A,,Light Drizzle,200,2013-06-21 10:56:00
3:58 AM,46.4,46.4,100,30.08,7.0,South,2.3,-,0.01,,Light Drizzle,190,2013-06-21 10:58:00
4:03 AM,46.4,46.4,100,30.05,5.0,South,3.5,-,N/A,,Light Drizzle,180,2013-06-21 11:03:00
4:12 AM,46.4,46.4,100,30.05,5.0,South,6.9,-,N/A,,Light Drizzle,170,2013-06-21 11:12:00
4:13 AM,46.4,46.4,100,30.05,5.0,South,6.9,-,N/A,,Light Drizzle,170,2013-06-21 11:13:00
4:14 AM,46.4,46.4,100,30.05,6.0,South,6.9,-,N/A,,Overcast,180,2013-06-21 11:14:00
4:28 AM,46.4,46.4,100,30.05,9.0,South,5.8,-,N/A,,Overcast,190,2013-06-21 11:28:00
4:33 AM,46.4,46.4,100,30.06,10.0,SSW,5.8,-,N/A,,Overcast,200,2013-06-21 11:33:00
4:45 AM,46.4,46.4,100,30.05,10.0,SSW,5.8,-,N/A,,Overcast,210,2013-06-21 11:45:00
4:46 AM,46.4,46.4,100,30.05,10.0,SSW,5.8,-,N/A,,Overcast,210,2013-06-21 11:46:00
4:53 AM,46.4,46.4,100,30.06,10.0,SW,4.6,-,N/A,,Overcast,220,2013-06-21 11:53:00
4:58 AM,46.9,46.8,99,30.09,10.0,SW,3.5,-,0.01,,Overcast,230,2013-06-21 11:58:00
5:02 AM,46.4,46.4,100,30.06,10.0,SW,4.6,-,N/A,,Overcast,220,2013-06-21 12:02:00
5:03 AM,46.4,46.4,100,30.06,10.0,SW,3.5,-,N/A,,Light Drizzle,220,2013-06-21 12:03:00
5:11 AM,46.4,46.4,100,30.06,10.0,SW,3.5,-,N/A,,Light Drizzle,220,2013-06-21 12:11:00
5:16 AM,46.4,46.4,100,30.06,10.0,SW,2.3,-,N/A,,Overcast,220,2013-06-21 12:16:00
5:17 AM,46.4,46.4,100,30.06,10.0,SSW,2.3,-,N/A,,Overcast,210,2013-06-21 12:17:00
5:48 AM,46.4,46.4,100,30.06,10.0,South,1.2,-,N/A,,Overcast,180,2013-06-21 12:48:00
5:58 AM,47.3,46.9,99,30.10,10.0,South,2.3,-,0.00,,Overcast,190,2013-06-21 12:58:00
6:09 AM,48.2,46.4,93,30.07,10.0,SSE,2.3,-,N/A,,Light Drizzle,160,2013-06-21 13:09:00
6:23 AM,46.4,46.4,100,30.07,10.0,SE,2.3,-,N/A,Rain,Light Rain,130,2013-06-21 13:23:00
6:30 AM,46.4,46.4,100,30.08,10.0,SE,3.5,-,N/A,,Light Drizzle,130,2013-06-21 13:30:00
6:41 AM,46.4,46.4,100,30.08,10.0,South,2.3,-,N/A,,Light Drizzle,170,2013-06-21 13:41:00
6:42 AM,46.4,46.4,100,30.08,10.0,SSE,3.5,-,N/A,,Light Drizzle,160,2013-06-21 13:42:00
6:49 AM,46.4,46.4,100,30.08,10.0,South,3.5,-,N/A,,Light Drizzle,180,2013-06-21 13:49:00
6:54 AM,46.4,46.4,100,30.08,10.0,South,3.5,-,N/A,,Overcast,180,2013-06-21 13:54:00
6:58 AM,47.1,46.9,99,30.11,10.0,SW,3.5,-,0.01,,Overcast,220,2013-06-21 13:58:00
7:02 AM,46.4,46.4,100,30.08,10.0,SW,2.3,-,N/A,,Overcast,220,2013-06-21 14:02:00
7:13 AM,48.2,46.4,93,30.08,10.0,SE,2.3,-,N/A,,Overcast,130,2013-06-21 14:13:00
7:26 AM,48.2,46.4,93,30.09,7.0,Calm,Calm,-,N/A,,Overcast,0,2013-06-21 14:26:00
7:39 AM,48.2,46.4,93,30.09,10.0,West,2.3,-,N/A,,Overcast,260,2013-06-21 14:39:00
7:58 AM,48.9,47.3,94,30.12,10.0,Calm,Calm,-,N/A,,Overcast,0,2013-06-21 14:58:00
7:59 AM,48.2,46.4,93,30.09,10.0,Calm,Calm,-,N/A,,Overcast,0,2013-06-21 14:59:00
8:03 AM,48.2,46.4,93,30.09,10.0,ENE,1.2,-,N/A,Rain,Light Rain,70,2013-06-21 15:03:00
8:14 AM,48.2,46.4,93,30.10,10.0,SE,4.6,-,N/A,,Overcast,140,2013-06-21 15:14:00
8:22 AM,48.2,48.2,100,30.09,10.0,SSE,4.6,-,N/A,,Overcast,150,2013-06-21 15:22:00
8:23 AM,48.2,48.2,100,30.09,10.0,SE,5.8,-,N/A,,Overcast,140,2013-06-21 15:23:00
8:58 AM,50.0,46.9,89,30.12,10.0,SE,3.5,-,0.00,,Overcast,130,2013-06-21 15:58:00
9:01 AM,50.0,48.2,94,30.10,10.0,ESE,5.8,-,N/A,,Overcast,120,2013-06-21 16:01:00
9:02 AM,50.0,46.4,87,30.10,10.0,ESE,9.2,-,N/A,,Overcast,120,2013-06-21 16:02:00
9:10 AM,50.0,48.2,94,30.10,10.0,SE,5.8,-,N/A,,Overcast,130,2013-06-21 16:10:00
9:15 AM,50.0,48.2,94,30.10,8.0,ESE,4.6,-,N/A,,Overcast,120,2013-06-21 16:15:00
9:19 AM,51.8,48.2,88,30.10,8.0,SE,8.1,-,N/A,,Overcast,130,2013-06-21 16:19:00
9:22 AM,51.8,48.2,88,30.10,9.0,ESE,5.8,-,N/A,,Overcast,120,2013-06-21 16:22:00
9:23 AM,51.8,48.2,88,30.10,10.0,SE,8.1,-,N/A,,Overcast,130,2013-06-21 16:23:00
9:31 AM,53.6,48.2,82,30.10,10.0,East,6.9,-,N/A,,Overcast,100,2013-06-21 16:31:00
9:33 AM,53.6,48.2,82,30.10,10.0,ESE,10.4,-,N/A,,Overcast,120,2013-06-21 16:33:00
9:36 AM,53.6,48.2,82,30.10,10.0,ESE,6.9,-,N/A,,Overcast,120,2013-06-21 16:36:00
9:41 AM,53.6,48.2,82,30.10,10.0,SE,9.2,-,N/A,,Mostly Cloudy,140,2013-06-21 16:41:00
9:42 AM,53.6,48.2,82,30.10,10.0,SE,9.2,-,N/A,,Mostly Cloudy,140,2013-06-21 16:42:00
9:51 AM,51.8,48.2,88,30.10,10.0,SE,8.1,-,N/A,,Mostly Cloudy,140,2013-06-21 16:51:00
9:55 AM,51.8,48.2,88,30.10,10.0,SE,8.1,-,N/A,,Light Drizzle,130,2013-06-21 16:55:00
9:58 AM,52.0,47.8,86,30.12,10.0,SE,10.4,-,0.00,,Light Drizzle,140,2013-06-21 16:58:00
10:05 AM,53.6,48.2,82,30.10,10.0,SE,10.4,-,N/A,,Mostly Cloudy,140,2013-06-21 17:05:00
10:13 AM,55.4,48.2,77,30.10,10.0,SE,10.4,-,N/A,,Overcast,130,2013-06-21 17:13:00
10:14 AM,55.4,48.2,77,30.09,10.0,SE,10.4,-,N/A,,Overcast,140,2013-06-21 17:14:00
10:24 AM,53.6,48.2,82,30.10,10.0,SSE,9.2,-,N/A,,Overcast,150,2013-06-21 17:24:00
10:58 AM,52.3,45.9,79,30.12,10.0,SSE,8.1,-,0.00,,Overcast,160,2013-06-21 17:58:00
11:58 AM,54.5,47.8,78,30.13,10.0,SSW,9.2,-,N/A,,Overcast,200,2013-06-21 18:58:00
12:16 PM,53.6,48.2,82,30.11,10.0,SW,9.2,-,N/A,Rain,Light Rain,220,2013-06-21 19:16:00
12:25 PM,53.6,48.2,82,30.11,10.0,South,10.4,-,N/A,,Overcast,190,2013-06-21 19:25:00
12:58 PM,55.6,47.1,73,30.13,10.0,South,6.9,-,0.00,,Overcast,180,2013-06-21 19:58:00
1:37 PM,57.2,48.2,72,30.11,10.0,Variable,4.6,-,N/A,,Overcast,0,2013-06-21 20:37:00
1:58 PM,56.3,46.6,70,30.12,10.0,Variable,3.5,-,N/A,,Overcast,0,2013-06-21 20:58:00
2:15 PM,57.2,46.4,67,30.11,10.0,ESE,1.2,-,N/A,,Overcast,120,2013-06-21 21:15:00
2:58 PM,57.9,45.3,63,30.14,10.0,Variable,1.2,-,N/A,,Overcast,0,2013-06-21 21:58:00
3:21 PM,57.2,48.2,72,30.12,10.0,SSE,10.4,-,N/A,Rain,Light Rain,150,2013-06-21 22:21:00
3:46 PM,55.4,50.0,82,30.12,10.0,South,9.2,-,N/A,,Overcast,170,2013-06-21 22:46:00
3:58 PM,55.2,50.0,83,30.14,10.0,South,9.2,-,0.00,,Mostly Cloudy,180,2013-06-21 22:58:00
4:05 PM,55.4,50.0,82,30.11,10.0,South,10.4,-,N/A,Rain,Light Rain,180,2013-06-21 23:05:00
4:18 PM,55.4,50.0,82,30.12,10.0,South,8.1,-,N/A,,Overcast,190,2013-06-21 23:18:00
4:58 PM,56.1,48.7,76,30.13,10.0,SW,8.1,-,0.00,,Overcast,220,2013-06-21 23:58:00
5:58 PM,59.0,46.9,64,30.12,10.0,SW,4.6,-,N/A,,Overcast,230,2013-06-22 00:58:00
6:58 PM,59.5,46.6,62,30.11,10.0,SW,3.5,-,N/A,,Clear,230,2013-06-22 01:58:00
7:58 PM,58.5,45.3,62,30.11,10.0,SW,4.6,-,N/A,,Clear,220,2013-06-22 02:58:00
8:58 PM,54.3,49.3,83,30.12,10.0,SW,5.8,-,N/A,,Clear,220,2013-06-22 03:58:00
9:58 PM,51.8,48.0,87,30.13,10.0,SW,4.6,-,N/A,,Clear,220,2013-06-22 04:58:00
10:58 PM,49.6,46.9,90,30.14,10.0,WSW,5.8,-,N/A,,Partly Cloudy,240,2013-06-22 05:58:00
11:58 PM,49.8,48.0,94,30.13,10.0,WSW,5.8,-,N/A,,Overcast,240,2013-06-22 06:58:00